Main page
METAR-TAF:

METAR-TAF

Airports :

Brive–Dordogne Valley Airport

Brive-la-Gaillarde, France

latitude: 45-02-28N, longitude: 001-28-59E, elevation: 311 m

Current weather observation

The report was made 34 minutes ago, at 19:30 UTC
Wind 4 kt from the Northwest, varying between West/Northwest and North
Temperature 1°C
Humidity 69%
Pressure 1032 hPa
Visibility 10 km or more
no clouds below 1500 m and no cumulonimbus

METAR: LFSL 211930Z AUTO 31004KT 290V360 CAVOK 01/M04 Q1032 NOSIG

Time: 21:04 (20:04 UTC)

Forecast

The report was made 3 hours and 4 minutes ago, at 17:00 UTC
Forecast valid from 21 at 18 UTC to 22 at 03 UTC
Wind 6 kt from the North
Visibility 10 km or more
no clouds below 1500 m and no cumulonimbus
Becoming
from 21 at 21 UTC to 21 at 23 UTC
Wind 3 kt from variable directions

TAF: LFSL 211700Z 2118/2203 01006KT CAVOK BECMG 2121/2123 VRB03KT

Weather observations and forecasts of more than 4000 airports (METAR and TAF reports).

The available stations are represented by yellow and red dots on the map.

Hover mouse over dot to see the name of the station.

Then click to see weather observations and forecasts.

To change the map : click on the green buttons with a black cross to zoom in, on the green button with a dash to zoom out, or on the green arrows for adjacent maps.


METAR-TAF: